• Join FlightAware (Why Join?)
  • Login
  • US Flag 
02:53PM EDT


 

Airport Tracker/Info


-or-


 

Live Flight TrackerFlight Track Log ✈ CTL14 ✈ 18-Apr-2013 ✈ KBAK - KBMI

Flight Track Log - Related Links

Times and Time Zones

All times are in EDT time to prevent confusion due to time zone crossing. See the CTL14 flight status page for this flight to view local times or setup timezone preferences in your user account.

Time Position Orientation Groundspeed Altitude Reporting Facility
EDT Latitude Longitude Course Direction KTS MPH feet Rate Location/Type
09:08PM 39.2833 -85.8667 38° Northeast 115 132 1,400  Level Indianapolis TRACON
09:09PM 39.3000 -85.8500 38° Northeast 110 127 2,200 840 Climbing Indianapolis TRACON
09:10PM 39.3333 -85.8167 38° Northeast 125 144 3,100 780 Climbing Indianapolis TRACON
09:11PM 39.3667 -85.8333 339° North 151 174 3,800 420 Climbing Indianapolis TRACON
09:12PM 39.3833 -85.8667 303° West 156 180 4,000  Climbing Indianapolis TRACON
09:13PM 39.4000 -85.9167 293° West 181 208 3,900 120 Descending Indianapolis TRACON
09:14PM 39.4333 -85.9833 303° West 174 200 4,300 540 Climbing Indianapolis TRACON
09:14PM 39.4400 -86.0144 286° West 231 266 4,900 600 Climbing Indianapolis Center
09:15PM 39.4586 -86.0556 300° West 142 163 5,500 480 Climbing Indianapolis Center
09:17PM 39.4772 -86.1017 298° West 143 165 5,900 240 Climbing Indianapolis Center
09:18PM 39.4964 -86.1531 296° West 146 168 6,000  Climbing Indianapolis Center
09:19PM 39.5231 -86.2219 297° West 159 183 6,000  Level Indianapolis Center
09:20PM 39.5453 -86.2806 296° West 168 193 6,000  Level Indianapolis Center
09:21PM 39.5683 -86.3408 296° West 176 203 6,000  Level Indianapolis Center
09:22PM 39.5886 -86.4006 294° West 179 206 6,000  Level Indianapolis Center
09:23PM 39.6117 -86.4614 296° West 182 209 6,000  Level Indianapolis Center
09:24PM 39.6347 -86.5244 295° West 186 214 6,000  Level Indianapolis Center
09:25PM 39.6561 -86.5861 294° West 187 215 6,100  Climbing Indianapolis Center
09:26PM 39.6761 -86.6456 294° West 185 213 6,000 -60 Descending Indianapolis Center
09:27PM 39.6956 -86.7006 295° West 180 207 6,000  Level Indianapolis Center
09:28PM 39.7150 -86.7481 298° West 169 194 6,000  Level Indianapolis Center
09:29PM 39.7308 -86.7942 294° West 157 181 6,000  Level Indianapolis Center
09:30PM 39.7444 -86.8369 292° West 145 167 6,000  Level Indianapolis Center
09:31PM 39.7614 -86.8767 299° West 136 157 6,000 -60 Level Indianapolis Center
09:32PM 39.7781 -86.9222 295° West 135 155 5,900  Descending Indianapolis Center
09:33PM 39.7958 -86.9672 297° West 136 157 6,000  Climbing Indianapolis Center
09:34PM 39.8147 -87.0186 296° West 135 155 6,000  Level Indianapolis Center
09:35PM 39.8306 -87.0631 295° West 133 153 6,000 -60 Level Indianapolis Center
09:36PM 39.8475 -87.1061 297° West 134 154 5,900  Descending Indianapolis Center
09:37PM 39.8639 -87.1497 296° West 134 154 6,000 60 Climbing Indianapolis Center
09:38PM 39.8794 -87.1958 294° West 134 154 6,100  Climbing Indianapolis Center
09:39PM 39.8950 -87.2417 294° West 137 158 6,000 -60 Descending Indianapolis Center
09:40PM 39.9122 -87.2903 295° West 140 161 6,000 -60 Level Indianapolis Center
09:41PM 39.9311 -87.3328 300° West 140 161 5,900 -60 Descending Indianapolis Center
09:42PM 39.9519 -87.3914 295° West 142 163 5,900 60 Level Indianapolis Center
09:44PM 39.9900 -87.5036 294° West 150 173 6,100 60 Climbing Chicago Center
09:45PM 40.0072 -87.5522 295° West 148 170 6,100  Level Chicago Center
09:46PM 40.0261 -87.6031 296° West 151 174 6,100  Level Chicago Center
09:47PM 40.0439 -87.6533 295° West 152 175 6,100  Level Chicago Center
09:48PM 40.0611 -87.7044 294° West 153 176 6,100  Level Chicago Center
09:49PM 40.0792 -87.7553 295° West 154 177 6,100  Level Chicago Center
09:50PM 40.1019 -87.8169 296° West 156 180 6,100  Level Chicago Center
09:51PM 40.1150 -87.8683 288° West 153 176 6,100  Level Chicago Center
09:53PM 40.1342 -87.9189 296° West 158 182 6,200 -180 Climbing Chicago Center
09:54PM 40.1522 -87.9706 295° West 157 181 5,800 -660 Descending Chicago Center
09:55PM 40.1739 -88.0264 297° West 161 185 4,900 -780 Descending Chicago Center
09:56PM 40.1950 -88.0844 295° West 168 193 4,300 -420 Descending Chicago Center
09:57PM 40.2147 -88.1517 291° West 169 194 4,100 -120 Descending Chicago Center
09:58PM 40.2278 -88.1997 290° West 159 183 4,100  Level Chicago Center
09:59PM 40.2428 -88.2442 294° West 148 170 4,100  Level Chicago Center
10:00PM 40.2600 -88.2897 296° West 141 162 4,100  Level Chicago Center
10:01PM 40.2744 -88.3361 292° West 139 160 4,100 -60 Level Chicago Center
10:02PM 40.2897 -88.3839 293° West 140 161 4,000  Descending Chicago Center
10:03PM 40.3094 -88.4383 295° West 140 161 4,100 60 Climbing Chicago Center
10:04PM 40.3236 -88.4875 291° West 141 162 4,200  Climbing Chicago Center
10:05PM 40.3397 -88.5406 292° West 147 169 4,100 -60 Descending Chicago Center
10:06PM 40.3608 -88.5872 301° West 148 170 4,100  Level Chicago Center
10:07PM 40.3869 -88.6308 308° West 149 171 4,100 -180 Level Chicago Center
10:08PM 40.4108 -88.6781 304° West 152 175 3,800 -300 Descending Chicago Center
10:09PM 40.4319 -88.7247 301° West 150 173 3,600 -300 Descending Chicago Center
10:10PM 40.4428 -88.7714 287° West 137 158 3,300 -480 Descending Chicago Center
10:11PM 40.4536 -88.8183 287° West 135 155 2,700 -840 Descending Chicago Center
10:12PM 40.4672 -88.8628 292° West 119 137 1,700 -600 Descending Chicago Center
10:13PM 40.4725 -88.8878 286° West 107 123 1,500 -240 Descending Chicago Center
10:15PM 40.4667 -88.9000 303° West  Level FlightAware Approximate
10:22PM 40.4771 -88.9159 303° West  Level Estimated
10:23PM 40.4771 -88.9159 303° West  Level Estimated